Tiempo atmosférico en la estación meteorológica de Aranda De Duero, Burgos (790 m.)

Fecha
DESCASC
Temp. máxima en grados centígrados (hora)
DESCASC
Temp. mínima en grados centígrados (hora)
DESCASC
Temp. media en grados centígrados
DESCASC
Racha de viento máxima en m/sg (hora)
DESCASC
Velocidad máxima media en intervalos de 10 minutos(hora)
DESCASC
Precipitaciones diarias en mm
DESCASC
Precipitaciones de 00:00 a 06:00 en mm
DESCASC
Precipitaciones de 06:00 a 12:00 en mm
DESCASC
Precipitaciones de 12:00 a 18:00 en mm
DESCASC
Precipitaciones de 18:00 a 24:00 en mm
DESCASC
10-12-2017 11.3 (17:30) 8.8 (06:00) 10.1 21.67 (20:10) 10.83 (19:40) 0.2 0 0 0 0.2
09-12-2017 10 (19:30) -0.5 (06:20) 4.8 11.39 (23:00) 5.28 (23:00) 0 0 0 0 0
08-12-2017 7.4 (15:20) 4 (01:00) 5.7 7.22 (02:00) 3.33 (06:40) 2 0.6 0 0 1.4
07-12-2017 10.4 (15:10) -5.9 (-00:0) 2.2 6.11 (14:00) 2.78 (15:10) 0.4 0 0 0 0.4
06-12-2017 5.2 (16:30) -6.3 (-00:0) -0.6 3.61 (13:50) 1.67 (14:20) 0 0 0 0 0
05-12-2017 1.4 (14:10) -6.3 (-00:0) -2.5 3.61 (14:00) 2.22 (14:20) 0 0 0 0 0
04-12-2017 7.4 (16:50) -4.7 (-00:0) 1.4 3.33 (12:20) 2.22 (04:20) 0 0 0 0 0
03-12-2017 5.3 (15:40) -3.5 (-00:0) 0.9 10.83 (13:30) 5.56 (14:50) 0 0 0 0 0
02-12-2017 3.3 (16:20) -2 (-00:0) 0.6 10 (15:40) 5.28 (15:50) 0 0 0 0 0
01-12-2017 3.2 (14:30) -4.7 (-00:0) -0.7 15.28 (14:30) 6.39 (14:30) 0.6 0 0 0.6 0
30-11-2017 5.6 (17:00) -6.3 (-00:0) -0.4 7.78 (13:30) 3.61 (13:30) 0 0 0 0 0
29-11-2017 6.3 (15:00) -6.4 (-00:0) 0 10 (15:30) 4.72 (15:30) 0 0 0 0 0
28-11-2017 10.4 (15:50) -4.8 (-00:0) 2.8 7.78 (16:00) 5 (16:00) 0 0 0 0 0
27-11-2017 8.3 (15:50) -7 (-00:0) 0.7 3.61 (14:00) 2.22 (14:20) 0 0 0 0 0
26-11-2017 8.8 (16:40) -4.5 (-00:0) 2.2 4.72 (13:20) 2.5 (17:00) 0 0 0 0 0
25-11-2017 10.8 (13:10) -1 (-00:0) 4.9 9.72 (03:00) 4.44 (03:00) 3.4 3 0.4 0 0
24-11-2017 13.2 (15:50) 7.6 (00:00) 10.4 13.61 (00:40) 5.56 (01:10) 3.2 0.2 1 1.6 0.4
23-11-2017 17.9 (14:50) 7.5 (00:00) 12.7 14.17 (15:00) 6.67 (15:00) 0 0 0 0 0
22-11-2017 17.7 (16:00) -4.4 (-00:0) 6.7 8.89 (22:10) 4.72 (22:20) 0 0 0 0 0
21-11-2017 15 (15:20) -5.9 (-00:0) 4.5 3.89 (15:10) 2.22 (21:50) 0 0 0 0 0
20-11-2017 14.2 (15:40) -6.6 (-00:0) 3.8 3.89 (13:30) 1.67 (21:20) 0 0 0 0 0
19-11-2017 13.2 (16:30) -6.3 (-00:0) 3.4 3.89 (15:00) 2.22 (18:20) 0 0 0 0 0
18-11-2017 15.3 (16:00) -4.7 (-00:0) 5.3 4.72 (16:00) 1.94 (18:40) 0 0 0 0 0
17-11-2017 15.3 (16:20) -4 (-00:0) 5.7 3.89 (13:20) 1.67 (13:40) 0 0 0 0 0
16-11-2017 15.9 (16:20) -5.3 (-00:0) 5.3 4.72 (13:10) 2.22 (13:10) 0 0 0 0 0
15-11-2017 12.7 (16:10) -5.7 (-00:0) 3.5 3.89 (16:10) 2.22 (13:30) 0 0 0 0 0

Gráficas

Temp. máximas Temp. mínimas Temp. medias Precipitaciones Rachas de viento máximas Velocidades máximas media en intervalos de 10 minutos

Datos horarios

Fecha y hora oficial Temperatura (ºC) Velocidad del viento (km/h) Dirección del viento Racha (km/h) Dirección de racha Precipitación (mm) Presión (hPa) Tendencia (hPa) Humedad (%)
2017-12-14 23:00:00 9.7 17 Sudoeste 37 Sudoeste 0 922.5 -0.8 85
2017-12-14 22:00:00 9.8 17 Sudoeste 40 Sudoeste 0.2 922.8 -0.8 85
2017-12-14 21:00:00 10.3 21 Sudoeste 38 Oeste 0 922.9 -1 83
2017-12-14 20:00:00 10.8 17 Sudoeste 37 Oeste 0 923.3 -1 78
2017-12-14 19:00:00 11.1 19 Sudoeste 36 Sudoeste 0 923.6 -0.8 77
2017-12-14 18:00:00 10.9 21 Sudoeste 40 Sudoeste 0 923.9 -1 81
2017-12-14 17:00:00 11.7 17 Sudoeste 35 Oeste 0 924.3 -1.4 76
2017-12-14 16:00:00 11.7 14 Sudoeste 39 Sudoeste 0 924.4 -2.3 79
2017-12-14 15:00:00 11.5 17 Sudoeste 34 Oeste 0 924.9 -2.6 79
2017-12-14 14:00:00 11.2 18 Sudoeste 36 Oeste 0 925.7 -2.2 80
2017-12-14 13:00:00 10.3 18 Sudoeste 40 Sudoeste 0 926.7 -1.2 84
2017-12-14 12:00:00 10.5 25 Sudoeste 44 Sudoeste 0 927.5 -0.3 82
2017-12-14 11:00:00 9.9 17 Oeste 41 Oeste 0 927.9 0.1 84
2017-12-14 10:00:00 9.6 19 Sudoeste 44 Oeste 0 927.9 -0.1 85
2017-12-14 09:00:00 9.2 17 Sudoeste 41 Oeste 0 927.8 -0.3 86
2017-12-14 08:00:00 9 17 Sudoeste 39 Oeste 0 927.8 -1 87
2017-12-14 07:00:00 8.7 13 Oeste 36 Sudoeste 0 928 -1.4 87
2017-12-14 06:00:00 8.6 19 Sudoeste 36 Sudoeste 0 928.1 -1.9 86
2017-12-14 05:00:00 8.5 17 Oeste 37 Sudoeste 0 928.8 -2 87
2017-12-14 04:00:00 8.2 17 Sudoeste 33 Sudoeste 0 929.4 -1.8 86
2017-12-14 03:00:00 8 18 Sudoeste 44 Sudoeste 0 930 -1.8 85
2017-12-14 02:00:00 7.8 18 Sudoeste 40 Sudoeste 0 930.8 -1.4 83
2017-12-14 01:00:00 7.8 22 Sudoeste 42 Sudoeste 0 931.2 -0.9 80
2017-12-14 00:00:00 7.5 20 Sudoeste 42 Sudoeste 0 931.8 -0.4 80
2017-12-13 23:00:00 7.6 16 Oeste 40 Sudoeste 0 932.2 0.3 78
2017-12-13 22:00:00 7.7 19 Sudoeste 34 Sudoeste 0 932.1 0.1 78
2017-12-13 21:00:00 7.9 15 Sudoeste 36 Oeste 0 932.2 0.5 78
2017-12-13 20:00:00 7.9 14 Oeste 32 Oeste 0 931.9 -0.3 77
2017-12-13 19:00:00 8 13 Oeste 32 Sudoeste 0 932 0 76
2017-12-13 18:00:00 7.9 15 Sudoeste 28 Sudoeste 0 931.7 -0.5 79
2017-12-13 17:00:00 7.8 13 Sudoeste 27 Oeste 0 932.2 -0.4 78
2017-12-13 16:00:00 7.5 12 Sudoeste 30 Oeste 0 932 -1.2 77
2017-12-13 15:00:00 7 15 Sudoeste 31 Sudoeste 0 932.2 -2 78
2017-12-13 14:00:00 5.6 14 Sudoeste 30 Sudoeste 0 932.6 -1.3 80
2017-12-13 13:00:00 4.9 14 Sudoeste 29 Sudoeste 0 933.2 -0.1 81
2017-12-13 12:00:00 4.3 11 Oeste 27 Oeste 0 934.2 -0.1 76
2017-12-13 11:00:00 3.5 11 Oeste 23 Oeste 0 933.9 1 76
2017-12-13 10:00:00 1.2 8 Sudoeste 15 Sudoeste 0 933.3 0.8 87
2017-12-13 09:00:00 -0.3 0 Calma 6 Este 0 934.3 1.3 88
2017-12-13 08:00:00 -0.8 3 Este 7 Norte 0 932.9 0.2 88
2017-12-13 07:00:00 -1.9 3 Norte 6 Nordeste 0 932.5 0.2 88
2017-12-13 06:00:00 -2.3 0 Calma 5 Oeste 0 933 0.6 87
2017-12-13 05:00:00 -1.9 4 Noroeste 8 Oeste 0 932.7 0.8 87
2017-12-13 04:00:00 -1.3 2 Este 8 Oeste 0 932.3 0.2 85
2017-12-13 03:00:00 -0.2 3 Noroeste 14 Sudoeste 0 932.4 0.8 84
2017-12-13 02:00:00 -0.1 5 Oeste 11 Oeste 0 931.9 0.8 84
2017-12-13 01:00:00 0.4 5 Oeste 13 Sudoeste 0 932.1 1.7 81
2017-12-13 00:00:00 0.7 2 Noroeste 14 Sudoeste 0 931.6 1.3 80
2017-12-12 23:00:00 0.5 4 Oeste 14 Oeste 0 931.1 1.2 85
2017-12-12 22:00:00 -0.5 3 Noroeste 8 Sudoeste 0 930.4 1 84
2017-12-12 21:00:00 0.6 3 Oeste 10 Sudoeste 0 930.3 2 82
2017-12-12 20:00:00 0.8 3 Sudoeste 9 Sudoeste 0 929.9 2 80
2017-12-12 19:00:00 1.1 5 Sudoeste 8 Sudoeste 0 929.4 1.8 77
2017-12-12 18:00:00 3.3 4 Sudoeste 7 Oeste 0 928.3 1.1 71
2017-12-12 17:00:00 4.9 4 Oeste 22 Oeste 0 927.9 1 66
2017-12-12 16:00:00 5.1 7 Oeste 17 Oeste 0 927.6 1 63
2017-12-12 15:00:00 5.3 9 Sudoeste 25 Oeste 0 927.2 0.4 63
2017-12-12 14:00:00 4.3 8 Oeste 29 Oeste 0 926.9 0.8 66
2017-12-12 13:00:00 4.1 6 Oeste 21 Oeste 0 926.6 1.5 69
2017-12-12 12:00:00 2.3 10 Sudoeste 23 Sudoeste 0 926.8 2.4 74
2017-12-12 11:00:00 0.6 8 Oeste 21 Oeste 0 926.1 2.5 81
2017-12-12 10:00:00 -2.4 4 Oeste 9 Oeste 0 925.1 2.4 89
2017-12-12 09:00:00 -4.7 0 Calma 5 Sudoeste 0 924.4 2.8 87
2017-12-12 08:00:00 -4.7 0 Calma 6 Sudoeste 0 923.6 3 87
2017-12-12 07:00:00 -4.3 0 Calma 4 Sudoeste 0 922.7 2.6 87
2017-12-12 06:00:00 -3.8 0 Calma 6 Este 0 921.6 2.3 87
2017-12-12 05:00:00 -3.3 2 Sudeste 9 Oeste 0 920.6 2.3 87
2017-12-12 04:00:00 -3.3 4 Sudoeste 6 Noroeste 0 920.1 1.8 86
2017-12-12 03:00:00 -2.9 0 Calma 5 Sudoeste 0 919.3 1.9 85
2017-12-12 02:00:00 -2.2 4 Oeste 9 Oeste 0 918.3 2.4 83
2017-12-12 01:00:00 -1.3 7 Sudoeste 13 Oeste 0 918.3 3.6 82
2017-12-12 00:00:00 -0.9 5 Oeste 10 Oeste 0 917.4 4.5 77
2017-12-11 23:00:00 1 5 Sudoeste 14 Noroeste 0 915.9 4.5 70
2017-12-11 22:00:00 1.8 6 Oeste 19 Noroeste 0 914.7 4.7 68
2017-12-11 21:00:00 3.2 7 Noroeste 25 Noroeste 0 912.9 4.5 65
2017-12-11 20:00:00 4.1 8 Oeste 29 Oeste 0.2 911.4 4.2 80
2017-12-11 19:00:00 4.6 13 Oeste 37 Oeste 0 910 3.8 78
2017-12-11 18:00:00 4.8 10 Sudoeste 30 Oeste 0 908.4 2.6 78
2017-12-11 17:00:00 6.2 14 Oeste 34 Oeste 0 907.2 1.6 66
2017-12-11 16:00:00 6.1 15 Oeste 37 Oeste 0 906.2 0.5 65
2017-12-11 15:00:00 6.4 17 Oeste 40 Oeste 0 905.8 0.5 61
2017-12-11 14:00:00 6.7 15 Oeste 46 Oeste 0 905.6 1.1 61
2017-12-11 13:00:00 6 17 Oeste 50 Oeste 0 905.7 3.1 66
2017-12-11 12:00:00 5.9 19 Oeste 44 Oeste 0 905.3 3.7 70
2017-12-11 11:00:00 5 20 Sudoeste 40 Sudoeste 0 904.5 3.5 76
2017-12-11 10:00:00 4.1 16 Oeste 39 Oeste 0 902.6 2.6 78
2017-12-11 09:00:00 4.4 19 Oeste 45 Oeste 0 901.6 2.5 79
2017-12-11 08:00:00 4.7 19 Oeste 51 Sudoeste 0 901 1.6 79
2017-12-11 07:00:00 4.8 22 Sudoeste 55 Sudoeste 0 900 -0.9 80
2017-12-11 06:00:00 4.3 25 Sudoeste 56 Sudoeste 0 899.1 -1.8 82
2017-12-11 05:00:00 4.2 28 Sudoeste 54 Sudoeste 0.8 899.4 0.3 83
2017-12-11 04:00:00 4.4 28 Sudoeste 53 Sudoeste 1.8 900.9 2 83
2017-12-11 03:00:00 5.2 24 Sudoeste 82 Oeste 3.8 900.9 0.4 83
2017-12-11 02:00:00 9.4 31 Sudoeste 68 Sudoeste 0.6 899.1 -4.4 79
2017-12-11 01:00:00 9.9 35 Sudoeste 64 Sudoeste 0.2 898.9 -6.5 72
2017-12-11 00:00:00 9.5 30 Sudoeste 62 Sudoeste 0.2 900.5 -7.2 77
2017-12-10 23:00:00 10.3 30 Sudoeste 68 Sudoeste 0 903.5 -6 68
2017-12-10 22:00:00 10.9 35 Sudoeste 66 Sudoeste 0 905.4 -5.9 63
2017-12-10 21:00:00 10.5 31 Sudoeste 78 Sudoeste 0 907.7 -4.6 69
2017-12-10 20:00:00 10.7 32 Sudoeste 68 Oeste 0 909.5 -4.4 68
2017-12-10 19:00:00 10.7 32 Sudoeste 66 Sudoeste 0 911.3 -4.2 75
2017-12-10 18:00:00 11.1 31 Sudoeste 62 Sudoeste 0 912.3 -4.5 73
2017-12-10 17:00:00 11 26 Sudoeste 60 Sudoeste 0 913.9 -4.7 72
2017-12-10 16:00:00 10.8 30 Sudoeste 58 Sudoeste 0 915.5 -5.2 71
2017-12-10 15:00:00 10.6 31 Sudoeste 55 Sudoeste 0 916.8 -5.3 72
2017-12-10 14:00:00 10.3 27 Sudoeste 58 Sudoeste 0 918.6 -4.6 72
2017-12-10 13:00:00 10 25 Sudoeste 58 Oeste 0 920.7 -2.9 74
2017-12-10 12:00:00 9.6 22 Sudoeste 53 Sudoeste 0 922.1 -1.9 75
2017-12-10 11:00:00 9.1 24 Sudoeste 46 Sudoeste 0 923.2 -1.6 76
2017-12-10 10:00:00 9.1 21 Sudoeste 41 Oeste 0 923.6 -1.8 78
2017-12-10 09:00:00 8.9 17 Sudoeste 36 Sudoeste 0 924 -1.7 79
2017-12-10 08:00:00 8.8 18 Sudoeste 41 Oeste 0 924.8 -2 81
2017-12-10 07:00:00 8.8 17 Sudoeste 37 Sudoeste 0 925.4 -2.1 79
2017-12-10 06:00:00 8.8 17 Sudoeste 39 Sudoeste 0 925.7 -2 79
2017-12-10 05:00:00 9 16 Oeste 40 Oeste 0 926.8 -1.7 79
2017-12-10 04:00:00 9.2 16 Oeste 39 Oeste 0 927.5 -1.6 79
2017-12-10 03:00:00 9.3 17 Oeste 41 Oeste 0 927.7 -1.8 80
2017-12-10 02:00:00 9.1 17 Oeste 41 Oeste 0 928.5 -1.5 81
2017-12-10 01:00:00 9.2 16 Oeste 42 Oeste 0 929.1 -0.9 80
2017-12-10 00:00:00 9.5 17 Sudoeste 36 Oeste 0 929.5 -0.5 80
2017-12-09 23:00:00 9.6 19 Oeste 41 Oeste 0 930 0.1 79
2017-12-09 22:00:00 9.8 15 Oeste 36 Oeste 0 930 0 80
2017-12-09 21:00:00 10 16 Oeste 37 Oeste 0 930 -0.1 81
2017-12-09 20:00:00 10 15 Oeste 36 Oeste 0 929.9 -0.3 81
2017-12-09 19:00:00 9.8 14 Oeste 32 Oeste 0 930 -1 84
2017-12-09 18:00:00 9.4 13 Oeste 26 Oeste 0 930.1 -1.3 86
2017-12-09 17:00:00 8.4 4 Oeste 12 Oeste 0 930.2 -1.8 87
2017-12-09 16:00:00 8 6 Oeste 25 Oeste 0 931 -1.9 84
2017-12-09 15:00:00 7.9 9 Oeste 18 Oeste 0 931.4 -2.2 85
2017-12-09 14:00:00 7 2 Sudoeste 7 Noroeste 0 932 -2.1 85
2017-12-09 13:00:00 6.1 4 Oeste 8 Oeste 0 932.9 -0.9 86
2017-12-09 12:00:00 4.6 2 Noroeste 6 Norte 0 933.6 -0.2 89
2017-12-09 11:00:00 3.3 3 Noroeste 5 Noroeste 0 934.1 0.3 90
2017-12-09 10:00:00 2.1 0 Calma 3 Oeste 0 933.8 0.1 90
2017-12-09 09:00:00 0.6 0 Calma 5 Oeste 0 933.8 0.4 89
2017-12-09 08:00:00 0.3 3 Oeste 6 Sudoeste 0 933.8 0.1 89
2017-12-09 07:00:00 -0.3 0 Calma 7 Sudoeste 0 933.7 -0.3 89
2017-12-09 06:00:00 -0.3 4 Sudoeste 6 Sudoeste 0 933.4 -0.5 88
2017-12-09 05:00:00 0.4 3 Sudoeste 8 Oeste 0 933.7 -0.3 87
2017-12-09 04:00:00 1.6 0 Calma 8 Sudoeste 0 934 0 87
2017-12-09 03:00:00 3.5 3 Sudoeste 8 Oeste 0 933.9 -0.4 88
2017-12-09 02:00:00 5.4 4 Oeste 9 Oeste 0 934 0 89
2017-12-09 01:00:00 5.7 4 Oeste 11 Oeste 0 934 -0.1 89
2017-12-09 00:00:00 5.9 5 Oeste 10 Oeste 0.2 934.3 0.3 89
2017-12-08 23:00:00 6 2 Oeste 5 Sudoeste 1 934 0 88
2017-12-08 22:00:00 6.2 0 Calma 7 Norte 0.2 934.1 0.1 88
2017-12-08 21:00:00 6.5 2 Nordeste 8 Noroeste 0 934 0 89
2017-12-08 20:00:00 6.8 3 Norte 10 Norte 0 934 0.1 89
2017-12-08 19:00:00 7.2 3 Noroeste 8 Noroeste 0 934 0 88
2017-12-08 18:00:00 7.3 2 Oeste 7 Oeste 0 934 -0.3 88
2017-12-08 17:00:00 7.3 5 Oeste 16 Oeste 0 933.9 -1 87
2017-12-08 16:00:00 7.3 8 Oeste 15 Oeste 0 934 -1.6 87
2017-12-08 15:00:00 7.2 4 Oeste 16 Oeste 0 934.3 -1.7 88
2017-12-08 14:00:00 6.9 7 Oeste 17 Oeste 0 934.9 -1.1 88
2017-12-08 13:00:00 6.7 4 Oeste 21 Oeste 0 935.6 -0.2 87
2017-12-08 12:00:00 6.7 7 Oeste 24 Oeste 0 936 0.2 86
2017-12-08 11:00:00 6.4 9 Oeste 21 Oeste 0 936 0.3 86
2017-12-08 10:00:00 5.8 9 Sudoeste 18 Oeste 0 935.8 0.3 86
2017-12-08 09:00:00 5.3 8 Sudoeste 18 Sudoeste 0 935.8 0.1 86
2017-12-08 08:00:00 5.2 9 Oeste 23 Oeste 0 935.7 -0.5 84
2017-12-08 07:00:00 5.1 10 Sudoeste 22 Sudoeste 0 935.5 -1 82
2017-12-08 06:00:00 4.8 8 Sudoeste 20 Sudoeste 0 935.7 -1 84
2017-12-08 05:00:00 4.5 6 Oeste 22 Sudoeste 0 936.2 -0.7 86
2017-12-08 04:00:00 4.3 10 Sudoeste 19 Oeste 0 936.5 -0.4 87
2017-12-08 03:00:00 4 6 Sudoeste 21 Sudoeste 0 936.7 -0.7 87
2017-12-08 02:00:00 4 8 Oeste 26 Oeste 0 936.9 -0.3 85
2017-12-08 01:00:00 4 0 Calma 4 Sudoeste 0.6 936.9 0.1 85
2017-12-08 00:00:00 4.2 0 Calma 6 Sudoeste 0.4 937.4 0.4 83
2017-12-07 23:00:00 4.5 0 Calma 6 Este 0 937.2 0.5 73
2017-12-07 22:00:00 4.2 2 Este 3 Este 0 936.8 -0.1 73
2017-12-07 21:00:00 4.2 0 Calma 7 Noroeste 0 937 0 72
2017-12-07 20:00:00 4.9 3 Sudeste 7 Sudeste 0 936.7 0 65
2017-12-07 19:00:00 5.8 0 Calma 6 Sudoeste 0 936.9 0.2 55
2017-12-07 18:00:00 7.5 3 Sudoeste 13 Oeste 0 937 0.4 46
2017-12-07 17:00:00 9.7 6 Oeste 21 Sudoeste 0 936.7 -0.5 37
2017-12-07 16:00:00 9.9 10 Oeste 22 Sudoeste 0 936.7 -1.4 35
2017-12-07 15:00:00 10.2 8 Oeste 21 Sudoeste 0 936.6 -2.5 38
2017-12-07 14:00:00 9 8 Oeste 22 Sudoeste 0 937.2 -2.5 40
2017-12-07 13:00:00 6 4 Sudoeste 12 Oeste 0 938.1 -1 54
2017-12-07 12:00:00 2.8 4 Este 7 Sudeste 0 939.1 0.3 63
2017-12-07 11:00:00 0.7 3 Nordeste 17 Sudeste 0 939.7 1.1 73
2017-12-07 10:00:00 -1.3 4 Sudeste 8 Sudeste 0 939.1 1 78
2017-12-07 09:00:00 -2.4 0 Calma 5 Sur 0 938.8 0.4 83
2017-12-07 08:00:00 -2.6 3 Norte 14 Sudeste 0 938.6 -0.2 82
2017-12-07 07:00:00 -3.2 3 Sur 5 Este 0 938.1 -0.9 86
2017-12-07 06:00:00 -3.6 0 Calma 7 Sudeste 0 938.4 -0.2 87
2017-12-07 05:00:00 -4.2 2 Sudoeste 6 Noroeste 0 938.8 -0.1 87
2017-12-07 04:00:00 -4.3 2 Norte 6 Oeste 0 939 -0.3 87
2017-12-07 03:00:00 -4.9 0 Calma 5 Este 0 938.6 -0.9 87
2017-12-07 02:00:00 -5.6 0 Calma 5 Sudoeste 0 938.9 -0.7 86
2017-12-07 01:00:00 -5.5 2 Norte 6 Este 0 939.3 -0.2 86
2017-12-07 00:00:00 -5.4 0 Calma 4 Sudoeste 0 939.5 -0.1 85
2017-12-06 23:00:00 -5.3 3 Sudoeste 4 Sudoeste 0 939.6 0.3 85
2017-12-06 22:00:00 -5.1 0 Calma 4 Sudoeste 0 939.5 0.4 83
2017-12-06 21:00:00 -4.3 3 Este 4 Este 0 939.6 0.5 82
2017-12-06 20:00:00 -3.3 0 Calma 4 Este 0 939.3 0.1 80
2017-12-06 19:00:00 -1.8 0 Calma 4 Sudoeste 0 939.1 0.1 75
2017-12-06 18:00:00 1.9 0 Calma 8 Oeste 0 939.1 -0.1 69
2017-12-06 17:00:00 4.9 4 Oeste 11 Oeste 0 939.2 -0.7 61
2017-12-06 16:00:00 4.9 5 Oeste 12 Oeste 0 939 -1.6 60
2017-12-06 15:00:00 4.4 5 Oeste 12 Oeste 0 939.2 -2.2 63
2017-12-06 14:00:00 2.7 5 Oeste 13 Oeste 0 939.9 -1.7 73
2017-12-06 13:00:00 -0.5 0 Calma 5 Nordeste 0 940.6 -0.9 86
2017-12-06 12:00:00 -2.1 2 Este 6 Sudeste 0 941.4 -0.1 88
2017-12-06 11:00:00 -4 0 Calma 8 Nordeste 0 941.6 0.4 88
2017-12-06 10:00:00 -5.3 3 Nordeste 8 Sudeste 0 941.5 0.3 88
2017-12-06 09:00:00 -6.2 2 Sudeste 10 Sudeste 0 941.5 0.3 88
2017-12-06 08:00:00 -5.6 4 Sudeste 11 Sudeste 0 941.2 -0.1 88
2017-12-06 07:00:00 -5.4 3 Este 9 Este 0 941.2 -0.4 88
2017-12-06 06:00:00 -5.1 2 Este 12 Este 0 941.2 -0.3 89
2017-12-06 05:00:00 -4.8 4 Sudeste 9 Sudeste 0 941.3 -0.6 89
2017-12-06 04:00:00 -4.5 5 Sudeste 10 Sudeste 0 941.6 -0.6 90
2017-12-06 03:00:00 -3.7 5 Sudeste 12 Sudeste 0 941.5 -0.6 90
2017-12-06 02:00:00 -3 4 Sudeste 10 Este 0 941.9 -0.2 90
2017-12-06 01:00:00 -2.4 2 Este 8 Sudeste 0 942.2 0.1 90
2017-12-06 00:00:00 -1.8 3 Este 8 Nordeste 0 942.1 -0.1 90
2017-12-05 23:00:00 -1.2 0 Calma 6 Sudeste 0 942.1 -0.1 90
2017-12-05 22:00:00 -1.5 2 Sur 7 Este 0 942.1 0.1 90
2017-12-05 21:00:00 -1.4 2 Sudoeste 8 Este 0 942.2 0.2 90
2017-12-05 20:00:00 -1.5 3 Nordeste 6 Nordeste 0 942.2 0.4 89
2017-12-05 19:00:00 -1.1 0 Calma 8 Oeste 0 942 0.2 88
2017-12-05 18:00:00 -0.5 3 Noroeste 9 Noroeste 0 942 -0.1 88
2017-12-05 17:00:00 0.1 3 Oeste 8 Noroeste 0 941.8 -0.5 86
2017-12-05 16:00:00 0.7 4 Noroeste 13 Sudoeste 0 941.8 -0.8 84
2017-12-05 15:00:00 1.4 5 Sudoeste 13 Sudoeste 0 942.1 -1.1 81
2017-12-05 14:00:00 1.3 7 Sudoeste 13 Oeste 0 942.3 -1.1 79
2017-12-05 13:00:00 -0.5 3 Sur 8 Sudoeste 0 942.6 -0.5 86
2017-12-05 12:00:00 -1.4 2 Sudeste 7 Nordeste 0 943.2 0.3 88
2017-12-05 11:00:00 -3.4 2 Este 11 Este 0 943.4 0.9 89
2017-12-05 10:00:00 -4.2 5 Este 10 Este 0 943.1 0.9 89
2017-12-05 09:00:00 -4.2 4 Este 12 Sudeste 0 942.9 0.9 89
2017-12-05 08:00:00 -3.9 4 Este 8 Este 0 942.5 0.4 88
2017-12-05 07:00:00 -4.5 4 Sudeste 6 Sudeste 0 942.2 0 88
2017-12-05 06:00:00 -5.9 0 Calma 4 Sudoeste 0 942 -0.3 87
2017-12-05 05:00:00 -6 0 Calma 3 Este 0 942.1 -0.2 86
2017-12-05 04:00:00 -4.9 0 Calma 3 Sudoeste 0 942.2 -0.7 88
2017-12-05 03:00:00 -3.6 0 Calma 8 Sudeste 0 942.3 -0.6 89
2017-12-05 02:00:00 -2.6 5 Sudeste 9 Sudeste 0 942.3 -0.5 89
2017-12-05 01:00:00 -2.6 2 Este 6 Nordeste 0 942.9 0.2 89
2017-12-05 00:00:00 -4.6 2 Este 6 Sudeste 0 942.9 0.6 86
2017-12-04 23:00:00 -4.4 2 Este 4 Este 0 942.8 0.5 84
2017-12-04 22:00:00 -3.6 0 Calma 3 Sudoeste 0 942.7 0.9 83
2017-12-04 21:00:00 -2.3 0 Calma 4 Sudeste 0 942.3 1.1 83
2017-12-04 20:00:00 -0.4 3 Sudeste 10 Nordeste 0 942.3 1.3 80
2017-12-04 19:00:00 1.6 5 Nordeste 9 Este 0 941.8 0.8 78
2017-12-04 18:00:00 5.2 0 Calma 7 Sudoeste 0 941.2 0.1 66
2017-12-04 17:00:00 7.3 4 Sudoeste 10 Sudoeste 0 941 -0.6 60
2017-12-04 16:00:00 6.7 2 Oeste 8 Sudoeste 0 941 -1.2 64
2017-12-04 15:00:00 6.2 3 Sudeste 11 Este 0 941.1 -1.5 66
2017-12-04 14:00:00 5.5 4 Este 12 Sudeste 0 941.6 -0.7 70
2017-12-04 13:00:00 5 5 Sudoeste 12 Sur 0 942.2 0.4 73
2017-12-04 12:00:00 3.4 3 Sudeste 8 Este 0 942.6 1.2 81
2017-12-04 11:00:00 2.7 2 Sur 8 Sur 0 942.3 1.5 85
2017-12-04 10:00:00 1.5 4 Sudoeste 7 Sudoeste 0 941.8 1.4 88
2017-12-04 09:00:00 0.1 2 Noroeste 6 Norte 0 941.4 1.3 88
2017-12-04 08:00:00 -1 2 Este 9 Oeste 0 940.8 0.9 88
2017-12-04 07:00:00 -1 4 Oeste 10 Oeste 0 940.4 0.2 88
2017-12-04 06:00:00 -1.3 0 Calma 5 Noroeste 0 940.1 0.1 87
2017-12-04 05:00:00 -1.9 2 Noroeste 10 Sudoeste 0 939.9 -0.1 85
2017-12-04 04:00:00 -0.6 4 Sudoeste 10 Oeste 0 940.2 0.3 85
2017-12-04 03:00:00 0.3 5 Sudoeste 10 Oeste 0 940 0.2 81
2017-12-04 02:00:00 0.6 3 Sudoeste 9 Oeste 0 940 0.6 82
2017-12-04 01:00:00 0.3 5 Sudoeste 8 Oeste 0 939.9 0.9 82
2017-12-04 00:00:00 0.3 5 Oeste 12 Oeste 0 939.8 1.1 84
2017-12-03 23:00:00 -1.1 5 Oeste 9 Sudoeste 0 939.4 0.9 84
2017-12-03 22:00:00 -0.7 3 Noroeste 13 Noroeste 0 939 0.8 82
2017-12-03 21:00:00 -0.1 5 Oeste 10 Oeste 0 938.7 1 76
2017-12-03 20:00:00 1.5 3 Oeste 19 Noroeste 0 938.5 1.1 72
2017-12-03 19:00:00 2.5 6 Noroeste 18 Norte 0 938.2 1.2 69
2017-12-03 18:00:00 2.9 9 Norte 24 Norte 0 937.7 0.8 65
2017-12-03 17:00:00 4.1 7 Noroeste 24 Norte 0 937.4 0.2 61
2017-12-03 16:00:00 5.1 12 Norte 28 Norte 0 937 -0.5 52
2017-12-03 15:00:00 5 17 Norte 33 Norte 0 936.9 -0.6 53
2017-12-03 14:00:00 4.9 15 Norte 39 Norte 0 937.2 -0.4 49
2017-12-03 13:00:00 3.6 10 Noroeste 31 Noroeste 0 937.5 0.3 57
2017-12-03 12:00:00 2.5 16 Norte 31 Noroeste 0 937.5 1.1 64
2017-12-03 11:00:00 1.2 14 Noroeste 29 Noroeste 0 937.6 1.6 70
2017-12-03 10:00:00 -0.6 11 Sudoeste 18 Sudoeste 0 937.2 2.1 80
2017-12-03 09:00:00 -1.6 6 Noroeste 22 Noroeste 0 936.4 1.7 80
2017-12-03 08:00:00 -3.3 6 Sudoeste 14 Sudoeste 0 936 1.4 85
2017-12-03 07:00:00 -2.8 5 Oeste 14 Oeste 0 935.1 0.5 83
2017-12-03 06:00:00 -1 9 Noroeste 25 Noroeste 0 934.7 0.3 77
2017-12-03 05:00:00 -1.3 10 Noroeste 23 Noroeste 0 934.6 0.5 82
2017-12-03 04:00:00 -0.8 9 Oeste 18 Oeste 0 934.6 0.6 81
2017-12-03 03:00:00 -1 9 Oeste 19 Sudoeste 0 934.4 0.8 84
2017-12-03 02:00:00 -1.2 8 Sudoeste 15 Oeste 0 934.1 0.9 84
2017-12-03 01:00:00 -1.3 5 Oeste 18 Norte 0 934 1.1 80
2017-12-03 00:00:00 0.1 12 Noroeste 30 Noroeste 0 933.6 0.7 77
2017-12-02 23:00:00 -0.5 8 Noroeste 22 Noroeste 0 933.2 0.4 81
2017-12-02 22:00:00 -0.2 11 Noroeste 22 Noroeste 0 932.9 0.8 81
2017-12-02 21:00:00 0.3 5 Noroeste 23 Noroeste 0 932.9 1.2 78
2017-12-02 20:00:00 1.3 11 Noroeste 25 Noroeste 0 932.8 1.2 76
2017-12-02 19:00:00 1.5 13 Noroeste 26 Noroeste 0 932.1 1 74
2017-12-02 18:00:00 1.8 14 Noroeste 31 Noroeste 0 931.7 0.4 74
2017-12-02 17:00:00 2.6 14 Noroeste 36 Noroeste 0 931.6 -0.3 67
2017-12-02 16:00:00 3 14 Noroeste 36 Noroeste 0 931.1 -0.9 65
2017-12-02 15:00:00 2.5 12 Noroeste 31 Noroeste 0 931.3 -0.9 76
2017-12-02 14:00:00 2.5 12 Noroeste 28 Noroeste 0 931.9 -0.2 73
2017-12-02 13:00:00 2.4 13 Noroeste 31 Noroeste 0 932 0.2 71
2017-12-02 12:00:00 2.1 14 Noroeste 33 Noroeste 0 932.2 0.7 70
2017-12-02 11:00:00 1.8 6 Oeste 18 Noroeste 0 932.1 0.8 75
2017-12-02 10:00:00 -0.7 6 Oeste 22 Oeste 0 931.8 0.9 79
2017-12-02 09:00:00 -1.2 8 Oeste 19 Oeste 0 931.5 0.7 80
2017-12-02 08:00:00 -1.4 8 Oeste 18 Oeste 0 931.3 0.4 81
2017-12-02 07:00:00 -1.1 8 Oeste 22 Oeste 0 930.9 -0.3 76
2017-12-02 06:00:00 -1.4 6 Oeste 18 Oeste 0 930.8 -0.4 76
2017-12-02 05:00:00 -1.6 8 Oeste 19 Oeste 0 930.9 -0.1 77
2017-12-02 04:00:00 -1.5 5 Oeste 19 Oeste 0 931.2 -0.2 77
2017-12-02 03:00:00 -0.8 5 Oeste 15 Oeste 0 931.2 0.2 79
2017-12-02 02:00:00 -1 6 Oeste 15 Oeste 0 931 0.1 80
2017-12-02 01:00:00 -1.1 5 Oeste 15 Sudoeste 0 931.4 0.6 81
2017-12-02 00:00:00 -2 5 Sudoeste 13 Oeste 0 931 0.4 85
2017-12-01 23:00:00 -2.4 5 Oeste 12 Oeste 0 930.9 0.8 86
2017-12-01 22:00:00 -2.3 4 Sudoeste 11 Oeste 0 930.8 1.2 84
2017-12-01 21:00:00 -2.2 5 Oeste 10 Oeste 0 930.6 1.8 84
2017-12-01 20:00:00 -1.9 3 Oeste 16 Noroeste 0 930.1 1.9 80
2017-12-01 19:00:00 -1 2 Oeste 22 Norte 0 929.6 2.3 77
2017-12-01 18:00:00 0.3 9 Norte 27 Norte 0 928.8 2.4 70
2017-12-01 17:00:00 1.3 13 Norte 38 Norte 0 928.2 2 61
2017-12-01 16:00:00 2.4 19 Norte 53 Norte 0 927.3 0.9 54
2017-12-01 15:00:00 3 20 Norte 55 Noroeste 0.6 926.4 0.3 59
2017-12-01 14:00:00 2.5 9 Norte 32 Norte 0 926.2 1.3 71
2017-12-01 13:00:00 3 16 Norte 31 Norte 0 926.4 1.9 71
2017-12-01 12:00:00 2 10 Noroeste 35 Noroeste 0 926.1 1.2 80
2017-12-01 11:00:00 1.5 18 Oeste 42 Oeste 0 924.9 -0.5 71
2017-12-01 10:00:00 0.1 12 Oeste 28 Oeste 0 924.5 -1.1 76
2017-12-01 09:00:00 -1 14 Sudoeste 27 Oeste 0 924.9 -1.6 78
2017-12-01 08:00:00 -3.2 3 Oeste 14 Oeste 0 925.4 -1.7 82
2017-12-01 07:00:00 -2.5 10 Sudoeste 22 Sudoeste 0 925.6 -2 80
2017-12-01 06:00:00 -2.9 4 Sudoeste 11 Oeste 0 926.5 -1.1 82
2017-12-01 05:00:00 -2.5 6 Oeste 13 Oeste 0 927.1 -0.9 83
2017-12-01 04:00:00 -2.4 9 Oeste 16 Oeste 0 927.6 -0.6 83
2017-12-01 03:00:00 -3.6 4 Sudoeste 11 Sudoeste 0 927.6 -0.7 86
2017-12-01 02:00:00 -4.3 3 Oeste 12 Oeste 0 928 -0.4 86
2017-12-01 01:00:00 -4.5 3 Oeste 6 Oeste 0 928.2 -0.1 85
2017-12-01 00:00:00 -3.8 0 Calma 9 Oeste 0 928.3 0.2 84
2017-11-30 23:00:00 -3.3 7 Oeste 12 Oeste 0 928.4 0.7 84
2017-11-30 22:00:00 -3.3 0 Calma 8 Sudoeste 0 928.3 0.6 83
2017-11-30 21:00:00 -2.3 2 Sudoeste 4 Sudoeste 0 928.1 0.7 79
2017-11-30 20:00:00 -0.5 2 Sudoeste 7 Oeste 0 927.7 0.7 73
2017-11-30 19:00:00 1.1 4 Sudoeste 10 Oeste 0 927.7 0.7 66
2017-11-30 18:00:00 3.6 6 Oeste 18 Oeste 0 927.4 0.8 56
2017-11-30 17:00:00 5.6 7 Oeste 17 Oeste 0 927 0.2 53
2017-11-30 16:00:00 4.8 7 Noroeste 28 Norte 0 927 0.1 57
2017-11-30 15:00:00 4.3 10 Norte 26 Noroeste 0 926.6 -0.5 57
2017-11-30 14:00:00 4.3 13 Norte 28 Norte 0 926.8 -0.2 56
2017-11-30 13:00:00 3.6 8 Norte 24 Noroeste 0 926.9 0.5 65
2017-11-30 12:00:00 2.3 4 Noroeste 14 Oeste 0 927.1 1.4 75
2017-11-30 11:00:00 0 5 Oeste 12 Oeste 0 927 2 85
2017-11-30 10:00:00 -2.6 5 Oeste 12 Oeste 0 926.4 2.1 88
2017-11-30 09:00:00 -5.8 3 Oeste 6 Sudoeste 0 925.7 1.6 87
2017-11-30 08:00:00 -5.7 3 Sudoeste 7 Oeste 0 925 1.2 87
2017-11-30 07:00:00 -4.9 3 Sudoeste 10 Oeste 0 924.3 0.8 88
2017-11-30 06:00:00 -5.1 5 Sudoeste 11 Oeste 0 924.1 0.7 88
2017-11-30 05:00:00 -5.6 4 Sudoeste 7 Sudoeste 0 923.8 0.7 87
2017-11-30 04:00:00 -5.1 4 Sudoeste 8 Oeste 0 923.5 0.5 87
2017-11-30 03:00:00 -4.7 5 Oeste 8 Oeste 0 923.4 0.6 87
2017-11-30 02:00:00 -4.2 4 Sudoeste 7 Oeste 0 923.1 0.7 86
2017-11-30 01:00:00 -3.4 4 Oeste 9 Noroeste 0 923 1 86
2017-11-30 00:00:00 -2.5 5 Sudoeste 15 Noroeste 0 922.8 1.2 86
2017-11-29 23:00:00 -2.6 4 Oeste 10 Oeste 0 922.4 1.1 85
2017-11-29 22:00:00 -2.5 5 Sudoeste 11 Oeste 0 922 1.5 83
2017-11-29 21:00:00 -1.8 3 Sudoeste 8 Noroeste 0 921.6 1.7 77
2017-11-29 20:00:00 0.6 0 Calma 17 Norte 0 921.3 2.1 71
2017-11-29 19:00:00 2.4 4 Norte 16 Norte 0 920.5 2 64
2017-11-29 18:00:00 3.8 9 Norte 27 Norte 0 919.9 1.5 59
2017-11-29 17:00:00 5.5 14 Norte 32 Norte 0 919.2 0.6 49
2017-11-29 16:00:00 6.1 9 Norte 36 Noroeste 0 918.5 -0.6 56
2017-11-29 15:00:00 6.3 13 Norte 31 Norte 0 918.4 -1 56
2017-11-29 14:00:00 6 12 Norte 32 Norte 0 918.6 -1 60
2017-11-29 13:00:00 5.3 15 Norte 31 Norte 0 919.1 -0.2 64
2017-11-29 12:00:00 4.5 6 Oeste 14 Noroeste 0 919.4 0.5 73
2017-11-29 11:00:00 0.9 5 Oeste 10 Oeste 0 919.6 1 87
2017-11-29 10:00:00 -3.6 2 Oeste 6 Noroeste 0 919.3 0.9 87
2017-11-29 09:00:00 -4.6 0 Calma 5 Este 0 918.9 0.4 87
2017-11-29 08:00:00 -5.4 0 Calma 7 Norte 0 918.6 0 87
2017-11-29 07:00:00 -5.5 3 Este 6 Este 0 918.4 -0.6 87
2017-11-29 06:00:00 -6.4 0 Calma 4 Sudoeste 0 918.5 -0.9 85
2017-11-29 05:00:00 -6 0 Calma 3 Este 0 918.6 -1.3 86
2017-11-29 04:00:00 -5.8 0 Calma 4 Sudoeste 0 919 -1.7 85
2017-11-29 03:00:00 -5.4 2 Sudoeste 4 Sur 0 919.4 -1.5 86
2017-11-29 02:00:00 -5 2 Sur 6 Sudoeste 0 919.9 -1.3 85
2017-11-29 01:00:00 -4.1 0 Calma 3 Norte 0 920.7 -0.9 86
2017-11-29 00:00:00 -3.5 3 Sudeste 9 Nordeste 0 920.9 -1 86
2017-11-28 23:00:00 -3.1 0 Calma 4 Sur 0 921.2 -0.9 85
2017-11-28 22:00:00 -2.4 0 Calma 4 Nordeste 0 921.6 -0.8 84
2017-11-28 21:00:00 -1.3 2 Sudeste 12 Sudoeste 0 921.9 -0.7 82
2017-11-28 20:00:00 0.2 0 Calma 8 Sudoeste 0 922.1 -0.9 77
2017-11-28 19:00:00 2.7 0 Calma 8 Oeste 0 922.4 -1 71
2017-11-28 18:00:00 6.1 0 Calma 17 Sudoeste 0 922.6 -1.5 62
2017-11-28 17:00:00 9.1 9 Sudoeste 27 Sudoeste 0 923 -2 51
2017-11-28 16:00:00 10 18 Sudoeste 28 Sudoeste 0 923.4 -2.9 50
2017-11-28 15:00:00 10.1 10 Oeste 22 Oeste 0 924.1 -3.2 50
2017-11-28 14:00:00 9.1 7 Oeste 20 Oeste 0 925 -3.2 55
2017-11-28 13:00:00 6.8 5 Oeste 13 Oeste 0 926.3 -2.5 61
2017-11-28 12:00:00 3.5 2 Nordeste 8 Sudeste 0 927.3 -1.6 71
2017-11-28 11:00:00 0.3 4 Este 8 Este 0 928.2 -0.8 79
2017-11-28 10:00:00 -2.2 4 Este 13 Este 0 928.8 -0.2 84
2017-11-28 09:00:00 -4.1 6 Sudeste 10 Sudeste 0 928.9 -0.4 86
2017-11-28 08:00:00 -4.4 3 Este 8 Este 0 929 -0.7 86
2017-11-28 07:00:00 -4.5 6 Sudeste 9 Sudeste 0 929 -1.3 87
2017-11-28 06:00:00 -4.5 3 Este 6 Este 0 929.3 -1.3 86
2017-11-28 05:00:00 -4 2 Este 9 Este 0 929.7 -1.7 86
2017-11-28 04:00:00 -3.4 4 Nordeste 10 Este 0 930.3 -1.3 87
2017-11-28 03:00:00 -4.2 3 Este 6 Sudeste 0 930.6 -1.7 86
2017-11-28 02:00:00 -3.5 3 Este 8 Este 0 931.4 -1 86
2017-11-28 01:00:00 -2.8 5 Este 11 Sudeste 0 931.6 -0.9 87
2017-11-28 00:00:00 -3 3 Este 6 Este 0 932.3 -0.2 86
2017-11-27 23:00:00 -2.8 0 Calma 3 Este 0 932.4 -0.4 84
2017-11-27 22:00:00 -1.5 0 Calma 6 Este 0 932.5 -0.5 83
2017-11-27 21:00:00 -0.5 0 Calma 4 Este 0 932.5 -0.5 82
2017-11-27 20:00:00 -0.9 0 Calma 5 Nordeste 0 932.8 -0.3 81
2017-11-27 19:00:00 0.9 0 Calma 4 Sur 0 933 -0.4 73
2017-11-27 18:00:00 3.9 3 Sur 6 Sudoeste 0 933 -0.7 64
2017-11-27 17:00:00 7.3 3 Noroeste 11 Sudoeste 0 933.1 -1.4 51
2017-11-27 16:00:00 8.3 5 Sudoeste 12 Sudoeste 0 933.4 -2 47
2017-11-27 15:00:00 7.5 5 Sudoeste 12 Oeste 0 933.7 -2.6 53
2017-11-27 14:00:00 5.9 6 Sudoeste 13 Oeste 0 934.5 -2.6 62
2017-11-27 13:00:00 3.3 3 Sudeste 9 Sudeste 0 935.4 -1.8 68
2017-11-27 12:00:00 0.7 3 Sudeste 10 Este 0 936.3 -0.7 76
2017-11-27 11:00:00 -1.1 3 Sudeste 12 Este 0 937.1 0.6 81
2017-11-27 10:00:00 -3.3 2 Nordeste 5 Nordeste 0 937.2 0.9 87
2017-11-27 09:00:00 -6.2 0 Calma 4 Sudoeste 0 937 0.6 86
2017-11-27 08:00:00 -6.9 3 Sudoeste 5 Sudoeste 0 936.5 0 85
2017-11-27 07:00:00 -6.2 0 Calma 3 Sudoeste 0 936.3 -0.5 85
2017-11-27 06:00:00 -5.1 0 Calma 6 Sudeste 0 936.4 -1 85
2017-11-27 05:00:00 -3.6 4 Este 10 Este 0 936.5 -0.8 87
2017-11-27 04:00:00 -3.8 4 Sudeste 9 Sudeste 0 936.8 -0.7 88
2017-11-27 03:00:00 -4.3 4 Este 7 Este 0 937.4 -0.3 87
2017-11-27 02:00:00 -4 0 Calma 4 Sudoeste 0 937.3 -0.7 86
2017-11-27 01:00:00 -3 3 Este 6 Este 0 937.5 -0.7 87
2017-11-27 00:00:00 -2.9 0 Calma 6 Este 0 937.7 -0.5 86
2017-11-26 23:00:00 -2.3 2 Sur 8 Sudeste 0 938 -0.1 85
2017-11-26 22:00:00 -1.4 4 Este 7 Este 0 938.2 0.4 86
2017-11-26 21:00:00 -0.9 4 Sudoeste 6 Sudoeste 0 938.2 0.9 83
2017-11-26 20:00:00 0.3 2 Sudoeste 8 Oeste 0 938.1 1.1 79
2017-11-26 19:00:00 2.5 3 Sudoeste 8 Sudoeste 0 937.8 0.7 73
2017-11-26 18:00:00 6.2 2 Sudoeste 14 Sudoeste 0 937.3 -0.1 61
2017-11-26 17:00:00 8.5 9 Sudoeste 15 Sudoeste 0 937 -1.1 51
2017-11-26 16:00:00 8.1 5 Este 14 Este 0 937.1 -1.8 46
2017-11-26 15:00:00 7.7 5 Este 17 Sudeste 0 937.4 -2 47
2017-11-26 14:00:00 7 5 Nordeste 17 Nordeste 0 938.1 -1.7 51
2017-11-26 13:00:00 6.2 5 Norte 12 Norte 0 938.9 0.2 54
2017-11-26 12:00:00 4 2 Norte 7 Sudoeste 0 939.4 1 71
2017-11-26 11:00:00 1.4 0 Calma 4 Sur 0 939.8 2.2 82
2017-11-26 10:00:00 -1 0 Calma 6 Este 0 938.7 1.4 86
2017-11-26 09:00:00 -4.1 2 Sur 5 Este 0 938.4 1.6 87
2017-11-26 08:00:00 -4.3 0 Calma 3 Noroeste 0 937.6 1.2 87
2017-11-26 07:00:00 -3.7 2 Sudoeste 6 Sudoeste 0 937.3 0.9 86
2017-11-26 06:00:00 -2.9 2 Sudoeste 5 Este 0 936.8 0.6 87
2017-11-26 05:00:00 -2 2 Oeste 9 Noroeste 0 936.4 0.5 87
2017-11-26 04:00:00 -2 4 Oeste 11 Oeste 0 936.4 0.5 88
2017-11-26 03:00:00 -2.3 5 Sudoeste 9 Sudoeste 0 936.2 0.3 87
2017-11-26 02:00:00 -2.3 4 Sudoeste 8 Oeste 0 935.9 0.4 87
2017-11-26 01:00:00 -1.7 3 Sudoeste 8 Sudoeste 0 935.9 0.9 86
2017-11-26 00:00:00 -1 3 Sudoeste 6 Sudoeste 0 935.9 1.5 85
2017-11-25 23:00:00 0 4 Sudoeste 7 Sudoeste 0 935.5 1.5 83
2017-11-25 22:00:00 1.6 4 Sudoeste 8 Nordeste 0 935 1.9 79
2017-11-25 21:00:00 3.9 4 Nordeste 15 Norte 0 934.4 2 72
2017-11-25 20:00:00 4.6 4 Este 27 Nordeste 0 934 2.4 71
2017-11-25 19:00:00 5.5 9 Norte 27 Norte 0 933.1 1.9 72
2017-11-25 18:00:00 6.5 12 Norte 29 Norte 0 932.4 1.5 68
2017-11-25 17:00:00 8.2 13 Norte 33 Norte 0 931.6 0.6 65
2017-11-25 16:00:00 9.5 13 Norte 34 Norte 0 931.2 0.3 65
2017-11-25 15:00:00 10.5 14 Norte 29 Norte 0 930.9 -0.3 64
2017-11-25 14:00:00 10.4 12 Norte 27 Noroeste 0 931 0.2 64
2017-11-25 13:00:00 10.7 11 Norte 26 Nordeste 0 930.9 0.8 68
2017-11-25 12:00:00 9.8 9 Norte 20 Norte 0 931.2 2 71
2017-11-25 11:00:00 8.8 7 Norte 24 Noroeste 0 930.8 2.5 74
2017-11-25 10:00:00 8.4 3 Este 16 Norte 0 930.1 2.6 80
2017-11-25 09:00:00 8.1 2 Oeste 18 Nordeste 0.2 929.2 1.8 85
2017-11-25 08:00:00 8.6 9 Norte 25 Sudoeste 0 928.3 0.8 84
2017-11-25 07:00:00 9.2 12 Sudoeste 27 Sudoeste 0.2 927.5 0 85
2017-11-25 06:00:00 9.5 11 Sudoeste 25 Sudoeste 0.6 927.4 0 84
2017-11-25 05:00:00 9.6 10 Sudoeste 22 Sudoeste 0.6 927.5 0.7 83
2017-11-25 04:00:00 9.6 9 Sudoeste 27 Oeste 1.6 927.5 0.3 83
2017-11-25 03:00:00 10.6 16 Sudoeste 35 Sudoeste 0 927.4 0.1 70
2017-11-25 02:00:00 10 7 Sudoeste 21 Sudoeste 0 926.8 -1 70
2017-11-25 01:00:00 10.1 8 Sudoeste 30 Oeste 0.2 927.2 -0.2 76
2017-11-25 00:00:00 10.6 6 Sudoeste 22 Sudoeste 0 927.3 -0.4 74
2017-11-24 23:00:00 10.2 3 Oeste 14 Sudoeste 0 927.8 0.1 78
2017-11-24 22:00:00 9.9 8 Sudoeste 17 Sudoeste 0 927.4 0.2 81
2017-11-24 21:00:00 9.7 6 Sudoeste 30 Oeste 0.4 927.7 0.6 81
2017-11-24 20:00:00 11 12 Oeste 48 Sudoeste 0 927.7 0.5 71
2017-11-24 19:00:00 11.1 2 Sudeste 6 Sur 0 927.2 0.1 86
2017-11-24 18:00:00 12 2 Este 16 Sudoeste 0 927.1 -0.5 82
2017-11-24 17:00:00 12.9 6 Sudoeste 12 Sudoeste 0 927.2 -0.7 82
2017-11-24 16:00:00 13.2 5 Oeste 14 Sudoeste 0 927.1 -1.3 79
2017-11-24 15:00:00 12.3 6 Sudoeste 18 Sudoeste 0 927.6 -1.5 83
2017-11-24 14:00:00 11.9 3 Sudoeste 13 Sudoeste 1 927.9 -0.9 88
2017-11-24 13:00:00 10.6 4 Sudoeste 15 Oeste 0.6 928.4 -0.2 87
2017-11-24 12:00:00 10.3 12 Sudoeste 23 Sudoeste 1 929.1 1 85
2017-11-24 11:00:00 10.9 6 Sudoeste 14 Oeste 0 928.8 0.9 78
2017-11-24 10:00:00 9.2 0 Calma 5 Este 0 928.6 1.1 82
2017-11-24 09:00:00 7.7 3 Este 4 Sudeste 0 928.1 0.9 82
2017-11-24 08:00:00 8.4 0 Calma 6 Noroeste 0 927.9 0.8 82
2017-11-24 07:00:00 8 0 Calma 5 Oeste 0 927.5 0.5 85
2017-11-24 06:00:00 8.1 2 Nordeste 9 Este 0 927.2 -0.2 83
2017-11-24 05:00:00 8.9 0 Calma 8 Este 0 927.1 -0.6 81
2017-11-24 04:00:00 8.7 4 Sur 9 Sudeste 0 927 -0.9 82
2017-11-24 03:00:00 9.1 2 Este 12 Sudoeste 0.2 927.4 -0.5 81
2017-11-24 02:00:00 10 10 Sudoeste 40 Sudoeste 0 927.7 -0.1 73
2017-11-24 01:00:00 11.7 13 Sudoeste 49 Sudoeste 0 927.9 -0.1 60
2017-11-24 00:00:00 8.8 3 Sudeste 8 Este 0 927.9 0.1 55
2017-11-23 23:00:00 8.9 3 Este 9 Este 0 927.8 0.4 56
2017-11-23 22:00:00 9.7 3 Sudeste 10 Este 0 928 1.1 50
2017-11-23 21:00:00 9.8 4 Este 11 Sudeste 0 927.8 1.3 48
2017-11-23 20:00:00 10.8 4 Sur 17 Sudoeste 0 927.4 0.9 44
2017-11-23 19:00:00 13.5 8 Sudoeste 27 Oeste 0 926.9 0.7 33
2017-11-23 18:00:00 15.4 13 Sudoeste 36 Oeste 0 926.5 0.5 30
2017-11-23 17:00:00 16.7 12 Oeste 38 Oeste 0 926.5 0.3 32
2017-11-23 16:00:00 17 15 Oeste 42 Oeste 0 926.2 0 34
2017-11-23 15:00:00 17.4 24 Oeste 51 Oeste 0 926 -0.6 36
2017-11-23 14:00:00 17.2 17 Oeste 43 Oeste 0 926.2 -0.2 38
2017-11-23 13:00:00 16.2 22 Sudoeste 40 Sudoeste 0 926.2 0.2 36
2017-11-23 12:00:00 15.4 17 Oeste 46 Oeste 0 926.6 1.5 35
2017-11-23 11:00:00 14.2 10 Oeste 23 Oeste 0 926.4 1.9 36
2017-11-23 10:00:00 13.1 15 Sudoeste 36 Sudoeste 0 926 2.2 37
2017-11-23 09:00:00 9.6 3 Sudoeste 10 Oeste 0 925.1 1.8 54
2017-11-23 08:00:00 10.6 3 Noroeste 19 Sudoeste 0 924.5 1.5 41
2017-11-23 07:00:00 9.9 8 Sudoeste 18 Oeste 0 923.8 1.2 42
2017-11-23 06:00:00 8.2 3 Nordeste 9 Este 0 923.3 0.8 52
2017-11-23 05:00:00 9.4 4 Este 8 Este 0 923 0.1 44
2017-11-23 04:00:00 11 3 Nordeste 18 Sudoeste 0 922.6 0 40
2017-11-23 03:00:00 12.1 8 Sur 21 Sudoeste 0 922.5 -0.1 33
2017-11-23 02:00:00 10.7 3 Oeste 16 Sudoeste 0 922.9 0.2 37
2017-11-23 01:00:00 12.1 7 Sudoeste 26 Sudoeste 0 922.6 0.3 30
2017-11-23 00:00:00 12.9 13 Sudoeste 30 Sudoeste 0 922.6 0.5 28
2017-11-22 23:00:00 13 15 Sudoeste 32 Sudoeste 0 922.7 0.5 28
2017-11-22 22:00:00 10.5 13 Sudoeste 27 Sudoeste 0 922.3 0.3 34
2017-11-22 21:00:00 6.4 6 Este 11 Este 0 922.1 0.1 50
2017-11-22 20:00:00 5.3 2 Nordeste 7 Este 0 922.2 0.3 54
2017-11-22 19:00:00 8.6 0 Calma 8 Sudoeste 0 922 0.1 43
2017-11-22 18:00:00 13.7 5 Sur 14 Sudoeste 0 922 -0.2 28
2017-11-22 17:00:00 15.9 3 Sudoeste 17 Noroeste 0 921.9 -1 25
2017-11-22 16:00:00 17.6 5 Oeste 14 Oeste 0 921.9 -2.2 20
2017-11-22 15:00:00 17 3 Nordeste 14 Sudeste 0 922.2 -3.1 23
2017-11-22 14:00:00 15.9 6 Este 18 Este 0 922.9 -3 25
2017-11-22 13:00:00 12.6 8 Este 15 Sudeste 0 924.1 -2.2 32
2017-11-22 12:00:00 8.9 4 Este 13 Este 0 925.3 -0.8 43
2017-11-22 11:00:00 4 5 Sudeste 12 Sudeste 0 925.9 -0.2 57
2017-11-22 10:00:00 -0.3 5 Sudeste 10 Sudeste 0 926.3 0.1 69
2017-11-22 09:00:00 -3 6 Sudeste 9 Sudeste 0 926.1 -0.2 75
2017-11-22 08:00:00 -3.9 5 Este 13 Sudeste 0 926.1 -0.6 78
2017-11-22 07:00:00 -4.1 2 Sudeste 12 Este 0 926.2 -1.1 76
2017-11-22 06:00:00 -3.5 6 Sudeste 12 Este 0 926.3 -1.4 77
2017-11-22 05:00:00 -3.4 5 Este 12 Sudeste 0 926.7 -1.4 77
2017-11-22 04:00:00 -3.3 7 Este 12 Sudeste 0 927.3 -1.3 77
2017-11-22 03:00:00 -3.3 4 Este 9 Sudeste 0 927.7 -1 78
2017-11-22 02:00:00 -3.1 3 Este 9 Sudeste 0 928.1 -0.7 75
2017-11-22 01:00:00 -2.1 3 Sudeste 10 Este 0 928.6 -0.2 71
2017-11-22 00:00:00 -1.2 5 Este 10 Sudeste 0 928.7 -0.3 71
2017-11-21 23:00:00 -0.7 4 Sudeste 10 Este 0 928.8 -0.5 70
2017-11-21 22:00:00 0.6 7 Este 12 Este 0 928.8 -0.5 65
2017-11-21 21:00:00 0.5 5 Este 7 Este 0 929 -0.1 65
2017-11-21 20:00:00 2.2 3 Este 6 Este 0 929.3 0.4 55
2017-11-21 19:00:00 5.1 0 Calma 4 Sudoeste 0 929.3 0.2 46
2017-11-21 18:00:00 10.4 0 Calma 4 Oeste 0 929.1 -0.3 37
2017-11-21 17:00:00 14.3 2 Sudoeste 8 Sudoeste 0 928.9 -1.2 27
2017-11-21 16:00:00 14.7 4 Oeste 14 Noroeste 0 929.1 -2 27
2017-11-21 15:00:00 14.8 5 Oeste 11 Oeste 0 929.4 -2.7 26
2017-11-21 14:00:00 13 2 Noroeste 7 Este 0 930.1 -2.4 31
2017-11-21 13:00:00 10.6 3 Sudeste 7 Sudeste 0 931.1 -1.6 36
2017-11-21 12:00:00 6.2 3 Sudeste 9 Este 0 932.1 -0.6 49
2017-11-21 11:00:00 2.1 4 Sudeste 9 Este 0 932.5 0.3 62
2017-11-21 10:00:00 -0.8 8 Este 12 Este 0 932.7 0.7 72
2017-11-21 09:00:00 -4.7 3 Este 5 Este 0 932.7 0.8 83
2017-11-21 08:00:00 -5.4 3 Este 6 Sudeste 0 932.2 0.4 82
2017-11-21 07:00:00 -5 4 Sudeste 8 Sudeste 0 932 0.1 80
2017-11-21 06:00:00 -3.9 5 Este 8 Sudeste 0 931.9 -0.3 81
2017-11-21 05:00:00 -4.1 4 Sudeste 10 Sudeste 0 931.8 -0.7 79
2017-11-21 04:00:00 -3.4 4 Este 8 Sudeste 0 931.9 -0.7 79
2017-11-21 03:00:00 -3 5 Este 9 Este 0 932.2 -0.4 79
2017-11-21 02:00:00 -2.9 0 Calma 8 Este 0 932.5 -0.1 78
2017-11-21 01:00:00 -3.2 0 Calma 6 Este 0 932.6 0.4 77
2017-11-21 00:00:00 -2.5 2 Nordeste 6 Este 0 932.6 0.5 78
2017-11-20 23:00:00 -1.6 3 Este 7 Este 0 932.6 0.6 72
2017-11-20 22:00:00 -0.2 4 Este 9 Este 0 932.2 0.6 72
2017-11-20 21:00:00 0.9 5 Este 8 Este 0 932.1 0.8 66
2017-11-20 20:00:00 2.6 2 Este 5 Este 0 932 0.8 59
2017-11-20 19:00:00 5.5 2 Sudeste 4 Sudeste 0 931.6 0.5 48
2017-11-20 18:00:00 10.3 0 Calma 5 Noroeste 0 931.3 -0.5 37
2017-11-20 17:00:00 13.6 3 Noroeste 8 Oeste 0 931.2 -1.4 28
2017-11-20 16:00:00 13.9 3 Oeste 13 Oeste 0 931.1 -2.2 29
2017-11-20 15:00:00 13.5 5 Oeste 13 Oeste 0 931.8 -2.1 31
2017-11-20 14:00:00 12.4 4 Oeste 14 Oeste 0 932.6 -1.5 33
2017-11-20 13:00:00 9.7 6 Oeste 11 Oeste 0 933.3 -0.2 42
2017-11-20 12:00:00 5.9 0 Calma 5 Este 0 933.9 0.6 50
2017-11-20 11:00:00 1.5 3 Sudeste 8 Sudeste 0 934.1 1 65
2017-11-20 10:00:00 -1.5 3 Sudeste 9 Sudeste 0 933.5 0.6 77
2017-11-20 09:00:00 -5.2 2 Este 4 Nordeste 0 933.3 0.6 85
2017-11-20 08:00:00 -6.6 2 Sudeste 4 Sudeste 0 933.1 0.7 84
2017-11-20 07:00:00 -6.2 0 Calma 3 Este 0 932.9 0.6 82
2017-11-20 06:00:00 -5.3 0 Calma 3 Sudeste 0 932.7 0.1 84
2017-11-20 05:00:00 -4.5 0 Calma 8 Este 0 932.4 -0.4 81
2017-11-20 04:00:00 -4 5 Sudeste 10 Sudeste 0 932.3 -0.5 82
2017-11-20 03:00:00 -4 0 Calma 5 Este 0 932.6 -0.1 80
2017-11-20 02:00:00 -3.2 4 Este 9 Sudeste 0 932.8 0.2 82
2017-11-20 01:00:00 -3.5 3 Este 6 Este 0 932.8 0.5 79
2017-11-20 00:00:00 -2.9 0 Calma 5 Este 0 932.7 0.7 77
2017-11-19 23:00:00 -2.2 3 Este 5 Este 0 932.6 0.7 76
2017-11-19 22:00:00 -1.1 2 Este 6 Este 0 932.3 0.9 72
2017-11-19 21:00:00 -0.1 0 Calma 5 Sudoeste 0 932 1.1 70
2017-11-19 20:00:00 2.2 0 Calma 4 Sudoeste 0 931.9 1.2 63
2017-11-19 19:00:00 5.5 2 Sudoeste 12 Sudoeste 0 931.4 0.7 53
2017-11-19 18:00:00 10.2 6 Sudoeste 10 Sudoeste 0 930.9 0.1 40
2017-11-19 17:00:00 13.1 5 Oeste 13 Sudoeste 0 930.7 -0.3 33
2017-11-19 16:00:00 12.9 6 Sudoeste 12 Sudoeste 0 930.7 -1 38
2017-11-19 15:00:00 11.3 7 Noroeste 14 Noroeste 0 930.8 -1.7 46
2017-11-19 14:00:00 11.7 5 Oeste 13 Sudoeste 0 931 -1.6 44
2017-11-19 13:00:00 9.3 0 Calma 6 Oeste 0 931.7 -0.6 54
2017-11-19 12:00:00 5.7 3 Este 8 Nordeste 0 932.5 0.6 64
2017-11-19 11:00:00 1.7 2 Sudeste 8 Este 0 932.6 1 74
2017-11-19 10:00:00 -0.8 4 Este 9 Este 0 932.3 1.3 81
2017-11-19 09:00:00 -4.8 0 Calma 4 Nordeste 0 931.9 0.9 86
2017-11-19 08:00:00 -6.3 0 Calma 5 Sudoeste 0 931.6 0.7 84
2017-11-19 07:00:00 -5.9 0 Calma 4 Nordeste 0 931 0 84
2017-11-19 06:00:00 -5.5 2 Este 5 Este 0 931 0 83
2017-11-19 05:00:00 -5 0 Calma 5 Este 0 930.9 0.2 84
2017-11-19 04:00:00 -4.6 2 Este 4 Este 0 931 0.1 84
2017-11-19 03:00:00 -4.3 2 Sudeste 3 Este 0 931 0.2 83
2017-11-19 02:00:00 -3.6 0 Calma 4 Sudoeste 0 930.7 -0.3 83
2017-11-19 01:00:00 -2.4 0 Calma 9 Sudeste 0 930.9 0.2 84
2017-11-19 00:00:00 -1.5 5 Sudeste 8 Sudeste 0 930.8 0.6 84
2017-11-18 23:00:00 -0.7 3 Este 5 Este 0 931 0.9 82
2017-11-18 22:00:00 0.6 0 Calma 5 Sudoeste 0 930.7 0.8 79
2017-11-18 21:00:00 2.4 3 Sudoeste 9 Sudoeste 0 930.2 1 75
2017-11-18 20:00:00 4.7 4 Sudoeste 10 Oeste 0 930.1 1 67
2017-11-18 19:00:00 8.4 4 Oeste 15 Noroeste 0 929.9 1.1 59
2017-11-18 18:00:00 11.2 3 Oeste 12 Noroeste 0 929.2 0.2 48
2017-11-18 17:00:00 14.1 5 Oeste 14 Oeste 0 929.1 -0.6 42
2017-11-18 16:00:00 14.9 6 Oeste 17 Sudoeste 0 928.8 -1.7 39
2017-11-18 15:00:00 14.3 5 Oeste 12 Sudoeste 0 929 -2.1 35
2017-11-18 14:00:00 14 6 Sudoeste 12 Sudoeste 0 929.7 -1.6 37
2017-11-18 13:00:00 11.2 5 Oeste 13 Noroeste 0 930.5 -0.9 43
2017-11-18 12:00:00 6.7 3 Norte 9 Noroeste 0 931.1 0 59
2017-11-18 11:00:00 3 3 Este 8 Sudeste 0 931.3 0.7 71
2017-11-18 10:00:00 -0.2 2 Este 5 Sudeste 0 931.4 1.1 79
2017-11-18 09:00:00 -3.6 0 Calma 3 Nordeste 0 931.1 0.7 85
2017-11-18 08:00:00 -4.6 0 Calma 4 Este 0 930.6 0.3 85
2017-11-18 07:00:00 -4.2 0 Calma 4 Sudeste 0 930.3 -0.1 85
2017-11-18 06:00:00 -4 0 Calma 4 Oeste 0 930.4 0 83
2017-11-18 05:00:00 -3.3 0 Calma 4 Sudeste 0 930.3 0.1 84
2017-11-18 04:00:00 -2.9 0 Calma 4 Este 0 930.4 -0.2 84
2017-11-18 03:00:00 -2.5 2 Sur 5 Nordeste 0 930.4 0.1 82
2017-11-18 02:00:00 -1.3 2 Sudeste 8 Este 0 930.2 0 82
2017-11-18 01:00:00 -1.3 2 Este 4 Este 0 930.6 0.7 80
2017-11-18 00:00:00 -0.4 2 Este 6 Nordeste 0 930.3 0.6 79
2017-11-17 23:00:00 0.6 0 Calma 4 Este 0 930.2 0.7 73
2017-11-17 22:00:00 1.7 2 Este 5 Este 0 929.9 0.7 71
2017-11-17 21:00:00 2.6 0 Calma 8 Sudoeste 0 929.7 0.8 71
2017-11-17 20:00:00 4.6 4 Sudoeste 7 Sudoeste 0 929.5 0.7 61
2017-11-17 19:00:00 7.1 3 Sudoeste 9 Sudoeste 0 929.2 0.2 53
2017-11-17 18:00:00 11.3 4 Sudoeste 7 Sudoeste 0 928.9 -0.3 40
2017-11-17 17:00:00 14.6 4 Sudoeste 11 Oeste 0 928.8 -1.1 32
2017-11-17 16:00:00 14.8 5 Oeste 13 Sudoeste 0 929 -1.6 31
2017-11-17 15:00:00 14.6 6 Oeste 14 Oeste 0 929.2 -2.1 32
2017-11-17 14:00:00 13.6 5 Oeste 14 Noroeste 0 929.9 -1.4 34
2017-11-17 13:00:00 11.7 4 Oeste 12 Oeste 0 930.6 -0.7 42
2017-11-17 12:00:00 7.8 2 Sudeste 6 Nordeste 0 931.3 0.1 55
2017-11-17 11:00:00 3.9 0 Calma 6 Este 0 931.3 0.4 65
2017-11-17 10:00:00 0.8 3 Este 8 Sudeste 0 931.3 0.6 75
2017-11-17 09:00:00 -2.2 3 Sudeste 6 Sudeste 0 931.2 0.5 84
2017-11-17 08:00:00 -4 2 Este 5 Sudeste 0 930.9 0.3 85
2017-11-17 07:00:00 -3.8 0 Calma 5 Este 0 930.7 0 84
2017-11-17 06:00:00 -3.6 2 Sudeste 5 Este 0 930.7 -0.1 83
2017-11-17 05:00:00 -3.4 0 Calma -- -- 0 930.6 -0.2 83
2017-11-17 04:00:00 -3.1 0 Calma 3 Este 0 930.7 -0.1 82
2017-11-17 03:00:00 -2.6 0 Calma 3 Este 0 930.8 0.1 82
2017-11-17 02:00:00 -1.9 0 Calma 4 Este 0 930.8 0.3 80
2017-11-17 01:00:00 -0.6 0 Calma 8 Este 0 930.8 0.4 78
2017-11-17 00:00:00 0.7 5 Este 9 Sudeste 0 930.7 0.7 76
2017-11-16 23:00:00 0.4 3 Este 8 Este 0 930.5 0.8 75
2017-11-16 22:00:00 1.7 3 Este 6 Este 0 930.4 1 70
2017-11-16 21:00:00 2.9 0 Calma 3 Este 0 930 0.9 68
2017-11-16 20:00:00 5 0 Calma 6 Sudoeste 0 929.7 0.7 61
2017-11-16 19:00:00 8.2 2 Sudoeste 10 Sudoeste 0 929.4 0.3 49
2017-11-16 18:00:00 12.7 4 Sudoeste 9 Oeste 0 929.1 0 37
2017-11-16 17:00:00 15.9 5 Sudoeste 12 Oeste 0 929 -0.7 29
2017-11-16 16:00:00 15.6 6 Sudoeste 14 Sudoeste 0 929.1 -1.1 28
2017-11-16 15:00:00 14.6 5 Sudoeste 12 Sudoeste 0 929.1 -1.9 28
2017-11-16 14:00:00 13.5 7 Sudoeste 17 Sudoeste 0 929.7 -1.4 31
2017-11-16 13:00:00 11.6 7 Sudoeste 14 Sudoeste 0 930.2 -0.6 39
2017-11-16 12:00:00 7.7 5 Sudoeste 9 Sudoeste 0 931 0.4 52
2017-11-16 11:00:00 2.9 0 Calma 7 Este 0 931.1 1 68
2017-11-16 10:00:00 -0.2 4 Sudeste 7 Sudeste 0 930.8 1.3 76
2017-11-16 09:00:00 -4 0 Calma 3 Sudeste 0 930.6 1.2 84
2017-11-16 08:00:00 -5.2 0 Calma 3 Este 0 930.1 1.1 84
2017-11-16 07:00:00 -4.5 0 Calma 7 Este 0 929.5 0.3 83
2017-11-16 06:00:00 -4 3 Sudeste 6 Sudeste 0 929.4 -0.2 83
2017-11-16 05:00:00 -3.5 4 Este 8 Este 0 929 -0.3 85
2017-11-16 04:00:00 -3.7 0 Calma 4 Sudeste 0 929.2 -0.4 82
2017-11-16 03:00:00 -2.6 4 Este 7 Este 0 929.6 0.1 82
2017-11-16 02:00:00 -2.5 2 Este 7 Este 0 929.3 -0.1 83
2017-11-16 01:00:00 -2.6 3 Este 6 Este 0 929.6 0.4 82
2017-11-16 00:00:00 -2.3 0 Calma 4 Este 0 929.5 0.5 80
2017-11-15 23:00:00 -1.1 3 Este 5 Este 0 929.4 0.7 78
2017-11-15 22:00:00 -0.4 0 Calma 6 Este 0 929.2 0.8 75
2017-11-15 21:00:00 0.9 3 Este 4 Este 0 929 1.1 72
2017-11-15 20:00:00 2.7 0 Calma 5 Sudoeste 0 928.7 1 65
2017-11-15 19:00:00 5.8 3 Sudoeste 5 Sudoeste 0 928.4 0.8 53
2017-11-15 18:00:00 10 2 Sudoeste 9 Oeste 0 927.9 -0.1 43
2017-11-15 17:00:00 12.2 5 Oeste 14 Norte 0 927.7 -0.7 36
2017-11-15 16:00:00 12.5 5 Oeste 13 Oeste 0 927.6 -1.6 36
2017-11-15 15:00:00 11.2 4 Noroeste 12 Oeste 0 928 -2 39
2017-11-15 14:00:00 11.6 4 Oeste 14 Oeste 0 928.4 -1.7 39
2017-11-15 13:00:00 9.9 5 Oeste 11 Sudoeste 0 929.2 -0.7 43
2017-11-15 12:00:00 5.6 3 Norte 7 Nordeste 0 930 0.3 55
2017-11-15 11:00:00 2 0 Calma 6 Este 0 930.1 0.7 66
2017-11-15 10:00:00 -0.9 2 Sudeste 4 Sudeste 0 929.9 0.5 76
2017-11-15 09:00:00 -3.8 2 Sudoeste 5 Sudeste 0 929.7 0.6 85
2017-11-15 08:00:00 -5.6 3 Este 7 Este 0 929.4 0.3 85
2017-11-15 07:00:00 -5.5 0 Calma 3 Este 0 929.4 0.2 83
2017-11-15 06:00:00 -4.7 3 Este 5 Este 0 929.1 -0.2 84
2017-11-15 05:00:00 -4.4 0 Calma 5 Este 0 929.1 -0.2 83
2017-11-15 04:00:00 -3.7 2 Sur 6 Sudeste 0 929.2 -0.2 81
2017-11-15 03:00:00 -2.8 3 Este 10 Sudeste 0 929.3 -0.1 82
2017-11-15 02:00:00 -3 3 Este 6 Este 0 929.3 -0.2 82
2017-11-15 01:00:00 -2.4 0 Calma 5 Nordeste 0 929.4 0 82
2017-11-15 00:00:00 -1.6 2 Sudoeste 7 Sudeste 0 929.4 0.3 78